sensor_id;sensor_type;location;lat;lon;timestamp;temperature;humidity
20740;DHT22;10530;49.968;19.844;2023-07-31T00:04:03;16.10;99.90
20740;DHT22;10530;49.968;19.844;2023-07-31T00:09:06;16.20;99.90
20740;DHT22;10530;49.968;19.844;2023-07-31T00:14:09;16.20;99.90
20740;DHT22;10530;49.968;19.844;2023-07-31T00:19:12;16.10;99.90
20740;DHT22;10530;49.968;19.844;2023-07-31T00:24:14;15.90;99.90
20740;DHT22;10530;49.968;19.844;2023-07-31T00:29:17;16.00;99.90
20740;DHT22;10530;49.968;19.844;2023-07-31T00:34:20;15.90;99.90
20740;DHT22;10530;49.968;19.844;2023-07-31T00:39:22;15.80;99.90
20740;DHT22;10530;49.968;19.844;2023-07-31T00:44:25;15.70;99.90
20740;DHT22;10530;49.968;19.844;2023-07-31T00:49:28;15.70;99.90
20740;DHT22;10530;49.968;19.844;2023-07-31T00:54:31;15.70;99.90
20740;DHT22;10530;49.968;19.844;2023-07-31T00:59:35;16.00;99.90
20740;DHT22;10530;49.968;19.844;2023-07-31T01:04:37;16.20;99.90
20740;DHT22;10530;49.968;19.844;2023-07-31T01:10:16;16.30;99.90
20740;DHT22;10530;49.968;19.844;2023-07-31T01:15:21;16.70;99.90
20740;DHT22;10530;49.968;19.844;2023-07-31T01:20:25;17.00;99.90
20740;DHT22;10530;49.968;19.844;2023-07-31T01:26:03;17.30;99.90
20740;DHT22;10530;49.968;19.844;2023-07-31T01:31:07;17.40;99.90
20740;DHT22;10530;49.968;19.844;2023-07-31T01:36:12;17.40;99.90
20740;DHT22;10530;49.968;19.844;2023-07-31T01:41:17;17.50;99.90
20740;DHT22;10530;49.968;19.844;2023-07-31T01:46:20;17.50;99.90
20740;DHT22;10530;49.968;19.844;2023-07-31T01:51:23;17.60;99.90
20740;DHT22;10530;49.968;19.844;2023-07-31T01:56:25;17.70;99.90
20740;DHT22;10530;49.968;19.844;2023-07-31T02:01:28;17.80;99.90
20740;DHT22;10530;49.968;19.844;2023-07-31T02:06:31;17.90;99.90
20740;DHT22;10530;49.968;19.844;2023-07-31T02:11:34;17.90;99.90
20740;DHT22;10530;49.968;19.844;2023-07-31T02:16:36;17.90;99.90
20740;DHT22;10530;49.968;19.844;2023-07-31T02:21:40;17.90;99.90
20740;DHT22;10530;49.968;19.844;2023-07-31T02:26:43;17.90;99.90
20740;DHT22;10530;49.968;19.844;2023-07-31T02:31:45;17.90;99.90
20740;DHT22;10530;49.968;19.844;2023-07-31T02:36:48;17.90;99.90
20740;DHT22;10530;49.968;19.844;2023-07-31T02:41:51;17.90;99.90
20740;DHT22;10530;49.968;19.844;2023-07-31T02:46:53;17.90;99.90
20740;DHT22;10530;49.968;19.844;2023-07-31T02:51:56;18.00;99.90
20740;DHT22;10530;49.968;19.844;2023-07-31T02:56:59;17.90;99.90
20740;DHT22;10530;49.968;19.844;2023-07-31T03:02:03;17.90;99.90
20740;DHT22;10530;49.968;19.844;2023-07-31T03:07:06;17.80;99.90
20740;DHT22;10530;49.968;19.844;2023-07-31T03:12:09;17.70;99.90
20740;DHT22;10530;49.968;19.844;2023-07-31T03:17:12;17.70;99.90
20740;DHT22;10530;49.968;19.844;2023-07-31T03:22:14;17.60;99.90
20740;DHT22;10530;49.968;19.844;2023-07-31T03:27:17;17.60;99.90
20740;DHT22;10530;49.968;19.844;2023-07-31T03:32:20;17.60;99.90
20740;DHT22;10530;49.968;19.844;2023-07-31T03:37:23;17.60;99.90
20740;DHT22;10530;49.968;19.844;2023-07-31T03:42:26;17.60;99.90
20740;DHT22;10530;49.968;19.844;2023-07-31T03:47:29;17.60;99.90
20740;DHT22;10530;49.968;19.844;2023-07-31T03:52:31;17.70;99.90
20740;DHT22;10530;49.968;19.844;2023-07-31T03:57:34;17.70;99.90
20740;DHT22;10530;49.968;19.844;2023-07-31T04:02:37;17.70;99.90
20740;DHT22;10530;49.968;19.844;2023-07-31T04:07:39;17.80;99.90
20740;DHT22;10530;49.968;19.844;2023-07-31T04:12:42;17.80;99.90
20740;DHT22;10530;49.968;19.844;2023-07-31T04:17:45;17.90;99.90
20740;DHT22;10530;49.968;19.844;2023-07-31T04:22:48;17.90;99.90
20740;DHT22;10530;49.968;19.844;2023-07-31T04:27:51;17.90;99.90
20740;DHT22;10530;49.968;19.844;2023-07-31T04:32:53;18.00;99.90
20740;DHT22;10530;49.968;19.844;2023-07-31T04:37:56;18.00;99.90
20740;DHT22;10530;49.968;19.844;2023-07-31T04:42:59;18.00;99.90
20740;DHT22;10530;49.968;19.844;2023-07-31T04:48:01;18.10;99.90
20740;DHT22;10530;49.968;19.844;2023-07-31T04:53:04;18.10;99.90
20740;DHT22;10530;49.968;19.844;2023-07-31T04:58:07;18.10;99.90
20740;DHT22;10530;49.968;19.844;2023-07-31T05:03:10;18.10;99.90
20740;DHT22;10530;49.968;19.844;2023-07-31T05:08:14;18.00;99.90
20740;DHT22;10530;49.968;19.844;2023-07-31T05:13:16;17.90;99.90
20740;DHT22;10530;49.968;19.844;2023-07-31T05:18:19;18.10;99.90
20740;DHT22;10530;49.968;19.844;2023-07-31T05:23:22;18.20;99.90
20740;DHT22;10530;49.968;19.844;2023-07-31T05:28:24;18.20;99.90
20740;DHT22;10530;49.968;19.844;2023-07-31T05:33:27;18.10;99.90
20740;DHT22;10530;49.968;19.844;2023-07-31T05:38:30;18.10;99.90
20740;DHT22;10530;49.968;19.844;2023-07-31T05:43:33;18.10;99.90
20740;DHT22;10530;49.968;19.844;2023-07-31T05:48:36;18.10;99.90
20740;DHT22;10530;49.968;19.844;2023-07-31T05:53:38;18.00;99.90
20740;DHT22;10530;49.968;19.844;2023-07-31T05:58:43;18.00;99.90
20740;DHT22;10530;49.968;19.844;2023-07-31T06:03:46;18.00;99.90
20740;DHT22;10530;49.968;19.844;2023-07-31T06:08:49;18.00;99.90
20740;DHT22;10530;49.968;19.844;2023-07-31T06:13:52;17.90;99.90
20740;DHT22;10530;49.968;19.844;2023-07-31T06:18:55;18.00;99.90
20740;DHT22;10530;49.968;19.844;2023-07-31T06:23:58;18.00;99.90
20740;DHT22;10530;49.968;19.844;2023-07-31T06:29:01;18.20;99.90
20740;DHT22;10530;49.968;19.844;2023-07-31T06:34:03;18.50;99.90
20740;DHT22;10530;49.968;19.844;2023-07-31T06:39:06;18.50;99.90
20740;DHT22;10530;49.968;19.844;2023-07-31T06:44:08;18.30;99.90
20740;DHT22;10530;49.968;19.844;2023-07-31T06:49:12;18.30;99.90
20740;DHT22;10530;49.968;19.844;2023-07-31T06:54:18;18.40;99.90
20740;DHT22;10530;49.968;19.844;2023-07-31T06:59:21;18.80;99.90
20740;DHT22;10530;49.968;19.844;2023-07-31T07:04:23;18.90;99.90
20740;DHT22;10530;49.968;19.844;2023-07-31T07:09:26;19.20;99.90
20740;DHT22;10530;49.968;19.844;2023-07-31T07:14:29;19.40;99.90
20740;DHT22;10530;49.968;19.844;2023-07-31T07:19:32;19.60;99.90
20740;DHT22;10530;49.968;19.844;2023-07-31T07:24:35;19.60;99.90
20740;DHT22;10530;49.968;19.844;2023-07-31T07:29:38;19.40;99.90
20740;DHT22;10530;49.968;19.844;2023-07-31T07:34:41;19.70;99.90
20740;DHT22;10530;49.968;19.844;2023-07-31T07:39:44;19.90;99.90
20740;DHT22;10530;49.968;19.844;2023-07-31T07:44:47;20.00;99.90
20740;DHT22;10530;49.968;19.844;2023-07-31T07:49:49;20.10;99.90
20740;DHT22;10530;49.968;19.844;2023-07-31T07:54:55;19.90;99.90
20740;DHT22;10530;49.968;19.844;2023-07-31T07:59:58;19.70;99.90
20740;DHT22;10530;49.968;19.844;2023-07-31T08:05:01;19.60;99.90
20740;DHT22;10530;49.968;19.844;2023-07-31T08:10:03;19.80;99.90
20740;DHT22;10530;49.968;19.844;2023-07-31T08:15:07;20.10;99.90
20740;DHT22;10530;49.968;19.844;2023-07-31T08:20:10;20.20;99.90
20740;DHT22;10530;49.968;19.844;2023-07-31T08:25:13;20.20;99.90
20740;DHT22;10530;49.968;19.844;2023-07-31T08:30:16;20.40;99.90
20740;DHT22;10530;49.968;19.844;2023-07-31T08:35:23;20.40;99.90
20740;DHT22;10530;49.968;19.844;2023-07-31T08:40:26;20.40;99.90
20740;DHT22;10530;49.968;19.844;2023-07-31T08:45:31;20.40;99.90
20740;DHT22;10530;49.968;19.844;2023-07-31T08:50:35;20.60;99.90
20740;DHT22;10530;49.968;19.844;2023-07-31T08:55:38;20.70;99.90
20740;DHT22;10530;49.968;19.844;2023-07-31T09:00:43;21.00;99.90
20740;DHT22;10530;49.968;19.844;2023-07-31T09:05:48;20.80;99.90
20740;DHT22;10530;49.968;19.844;2023-07-31T09:10:52;21.20;99.90
20740;DHT22;10530;49.968;19.844;2023-07-31T09:15:55;21.60;99.90
20740;DHT22;10530;49.968;19.844;2023-07-31T09:21:05;22.00;99.90
20740;DHT22;10530;49.968;19.844;2023-07-31T09:26:08;23.00;99.90
20740;DHT22;10530;49.968;19.844;2023-07-31T09:31:11;24.50;99.90
20740;DHT22;10530;49.968;19.844;2023-07-31T09:36:15;24.80;99.90
20740;DHT22;10530;49.968;19.844;2023-07-31T09:41:18;24.30;99.90
20740;DHT22;10530;49.968;19.844;2023-07-31T09:46:21;25.50;99.90
20740;DHT22;10530;49.968;19.844;2023-07-31T09:51:26;25.10;96.80
20740;DHT22;10530;49.968;19.844;2023-07-31T09:56:31;26.80;90.00
20740;DHT22;10530;49.968;19.844;2023-07-31T10:01:35;26.10;75.20
20740;DHT22;10530;49.968;19.844;2023-07-31T10:06:38;26.50;60.30
20740;DHT22;10530;49.968;19.844;2023-07-31T10:11:56;26.50;60.30
20740;DHT22;10530;49.968;19.844;2023-07-31T10:17:02;27.30;62.00
20740;DHT22;10530;49.968;19.844;2023-07-31T10:22:05;27.00;44.60
20740;DHT22;10530;49.968;19.844;2023-07-31T10:27:10;27.30;43.80
20740;DHT22;10530;49.968;19.844;2023-07-31T10:32:13;27.50;37.20
20740;DHT22;10530;49.968;19.844;2023-07-31T10:37:23;28.30;41.90
20740;DHT22;10530;49.968;19.844;2023-07-31T10:42:36;27.30;37.60
20740;DHT22;10530;49.968;19.844;2023-07-31T10:47:45;27.80;31.30
20740;DHT22;10530;49.968;19.844;2023-07-31T10:52:51;28.40;30.30
20740;DHT22;10530;49.968;19.844;2023-07-31T10:57:56;29.00;29.00
20740;DHT22;10530;49.968;19.844;2023-07-31T11:03:01;28.90;26.10
20740;DHT22;10530;49.968;19.844;2023-07-31T11:08:11;29.00;23.20
20740;DHT22;10530;49.968;19.844;2023-07-31T11:13:14;28.20;19.80
20740;DHT22;10530;49.968;19.844;2023-07-31T11:18:17;27.30;22.40
20740;DHT22;10530;49.968;19.844;2023-07-31T11:23:22;28.20;20.60
20740;DHT22;10530;49.968;19.844;2023-07-31T11:28:25;28.60;22.30
20740;DHT22;10530;49.968;19.844;2023-07-31T11:33:27;27.70;20.30
20740;DHT22;10530;49.968;19.844;2023-07-31T11:38:32;28.60;17.20
20740;DHT22;10530;49.968;19.844;2023-07-31T11:43:35;27.10;16.20
20740;DHT22;10530;49.968;19.844;2023-07-31T11:48:39;28.20;14.90
20740;DHT22;10530;49.968;19.844;2023-07-31T11:53:54;28.60;15.70
20740;DHT22;10530;49.968;19.844;2023-07-31T11:58:59;27.60;18.20
20740;DHT22;10530;49.968;19.844;2023-07-31T12:04:04;28.50;18.20
20740;DHT22;10530;49.968;19.844;2023-07-31T12:09:07;28.10;18.00
20740;DHT22;10530;49.968;19.844;2023-07-31T12:19:25;28.80;14.10
20740;DHT22;10530;49.968;19.844;2023-07-31T12:24:30;28.80;11.40
20740;DHT22;10530;49.968;19.844;2023-07-31T12:29:34;28.80;11.80
20740;DHT22;10530;49.968;19.844;2023-07-31T12:34:43;28.80;7.90
20740;DHT22;10530;49.968;19.844;2023-07-31T12:39:48;29.10;6.10
20740;DHT22;10530;49.968;19.844;2023-07-31T12:44:51;28.40;4.80
20740;DHT22;10530;49.968;19.844;2023-07-31T12:49:54;29.50;3.40
20740;DHT22;10530;49.968;19.844;2023-07-31T12:54:57;29.50;4.60
20740;DHT22;10530;49.968;19.844;2023-07-31T12:59:59;29.70;6.50
20740;DHT22;10530;49.968;19.844;2023-07-31T13:05:02;29.10;6.10
20740;DHT22;10530;49.968;19.844;2023-07-31T13:10:06;29.50;4.90
20740;DHT22;10530;49.968;19.844;2023-07-31T13:15:09;29.00;7.50
20740;DHT22;10530;49.968;19.844;2023-07-31T13:20:12;28.90;7.30
20740;DHT22;10530;49.968;19.844;2023-07-31T13:25:15;29.40;6.30
20740;DHT22;10530;49.968;19.844;2023-07-31T13:30:18;29.50;7.90
20740;DHT22;10530;49.968;19.844;2023-07-31T13:35:21;28.50;8.50
20740;DHT22;10530;49.968;19.844;2023-07-31T13:40:24;29.10;4.50
20740;DHT22;10530;49.968;19.844;2023-07-31T13:45:27;28.50;5.20
20740;DHT22;10530;49.968;19.844;2023-07-31T13:50:29;28.90;7.90
20740;DHT22;10530;49.968;19.844;2023-07-31T13:55:32;28.60;4.00
20740;DHT22;10530;49.968;19.844;2023-07-31T14:00:35;28.70;2.40
20740;DHT22;10530;49.968;19.844;2023-07-31T14:05:38;29.20;4.50
20740;DHT22;10530;49.968;19.844;2023-07-31T14:10:41;28.40;4.90
20740;DHT22;10530;49.968;19.844;2023-07-31T14:15:44;27.50;3.40
20740;DHT22;10530;49.968;19.844;2023-07-31T14:20:47;28.30;5.30
20740;DHT22;10530;49.968;19.844;2023-07-31T14:25:49;28.70;2.30
20740;DHT22;10530;49.968;19.844;2023-07-31T14:30:52;29.20;4.80
20740;DHT22;10530;49.968;19.844;2023-07-31T14:35:55;28.80;1.00
20740;DHT22;10530;49.968;19.844;2023-07-31T14:40:58;29.10;4.00
20740;DHT22;10530;49.968;19.844;2023-07-31T14:46:00;27.90;3.80
20740;DHT22;10530;49.968;19.844;2023-07-31T14:51:03;28.20;6.40
20740;DHT22;10530;49.968;19.844;2023-07-31T14:56:06;28.80;4.80
20740;DHT22;10530;49.968;19.844;2023-07-31T15:01:09;28.00;6.20
20740;DHT22;10530;49.968;19.844;2023-07-31T15:06:12;27.70;4.50
20740;DHT22;10530;49.968;19.844;2023-07-31T15:11:15;27.10;6.20
20740;DHT22;10530;49.968;19.844;2023-07-31T15:16:18;26.50;8.20
20740;DHT22;10530;49.968;19.844;2023-07-31T15:21:23;26.90;8.20
20740;DHT22;10530;49.968;19.844;2023-07-31T15:26:25;27.30;9.30
20740;DHT22;10530;49.968;19.844;2023-07-31T15:31:28;27.20;8.90
20740;DHT22;10530;49.968;19.844;2023-07-31T15:36:31;26.60;9.60
20740;DHT22;10530;49.968;19.844;2023-07-31T15:41:36;26.80;8.10
20740;DHT22;10530;49.968;19.844;2023-07-31T15:46:39;26.10;10.80
20740;DHT22;10530;49.968;19.844;2023-07-31T15:51:42;25.70;12.60
20740;DHT22;10530;49.968;19.844;2023-07-31T15:56:44;26.20;10.30
20740;DHT22;10530;49.968;19.844;2023-07-31T16:01:47;25.40;12.20
20740;DHT22;10530;49.968;19.844;2023-07-31T16:06:50;24.90;13.70
20740;DHT22;10530;49.968;19.844;2023-07-31T16:11:53;24.60;15.20
20740;DHT22;10530;49.968;19.844;2023-07-31T16:16:56;24.30;17.40
20740;DHT22;10530;49.968;19.844;2023-07-31T16:21:59;24.30;17.80
20740;DHT22;10530;49.968;19.844;2023-07-31T16:27:02;23.80;20.90
20740;DHT22;10530;49.968;19.844;2023-07-31T16:32:06;23.70;21.40
20740;DHT22;10530;49.968;19.844;2023-07-31T16:37:13;23.60;24.60
20740;DHT22;10530;49.968;19.844;2023-07-31T16:42:16;23.50;25.40
20740;DHT22;10530;49.968;19.844;2023-07-31T16:47:19;23.40;29.60
20740;DHT22;10530;49.968;19.844;2023-07-31T16:52:21;23.40;31.60
20740;DHT22;10530;49.968;19.844;2023-07-31T16:57:24;23.30;39.10
20740;DHT22;10530;49.968;19.844;2023-07-31T17:02:28;23.30;38.30
20740;DHT22;10530;49.968;19.844;2023-07-31T17:07:30;23.20;41.90
20740;DHT22;10530;49.968;19.844;2023-07-31T17:12:33;23.30;41.80
20740;DHT22;10530;49.968;19.844;2023-07-31T17:17:36;23.40;52.60
20740;DHT22;10530;49.968;19.844;2023-07-31T17:22:39;23.50;73.30
20740;DHT22;10530;49.968;19.844;2023-07-31T17:27:50;23.50;80.70
20740;DHT22;10530;49.968;19.844;2023-07-31T17:32:54;23.20;87.10
20740;DHT22;10530;49.968;19.844;2023-07-31T17:37:58;22.90;85.30
20740;DHT22;10530;49.968;19.844;2023-07-31T17:43:00;22.70;99.30
20740;DHT22;10530;49.968;19.844;2023-07-31T17:48:03;22.50;99.90
20740;DHT22;10530;49.968;19.844;2023-07-31T17:53:06;22.20;99.90
20740;DHT22;10530;49.968;19.844;2023-07-31T17:58:09;21.70;99.90
20740;DHT22;10530;49.968;19.844;2023-07-31T18:03:12;21.50;99.90
20740;DHT22;10530;49.968;19.844;2023-07-31T18:08:15;21.00;99.90
20740;DHT22;10530;49.968;19.844;2023-07-31T18:13:18;20.60;99.90
20740;DHT22;10530;49.968;19.844;2023-07-31T18:18:20;20.00;99.90
20740;DHT22;10530;49.968;19.844;2023-07-31T18:23:24;19.60;99.90
20740;DHT22;10530;49.968;19.844;2023-07-31T18:28:26;19.40;99.90
20740;DHT22;10530;49.968;19.844;2023-07-31T18:33:29;19.00;99.90
20740;DHT22;10530;49.968;19.844;2023-07-31T18:38:32;18.80;99.90
20740;DHT22;10530;49.968;19.844;2023-07-31T18:43:35;18.60;99.90
20740;DHT22;10530;49.968;19.844;2023-07-31T18:48:38;18.40;99.90
20740;DHT22;10530;49.968;19.844;2023-07-31T18:53:41;18.20;99.90
20740;DHT22;10530;49.968;19.844;2023-07-31T18:58:44;18.10;99.90
20740;DHT22;10530;49.968;19.844;2023-07-31T19:03:46;17.90;99.90
20740;DHT22;10530;49.968;19.844;2023-07-31T19:08:54;17.90;99.90
20740;DHT22;10530;49.968;19.844;2023-07-31T19:13:57;17.80;99.90
20740;DHT22;10530;49.968;19.844;2023-07-31T19:19:02;17.60;99.90
20740;DHT22;10530;49.968;19.844;2023-07-31T19:24:04;17.40;99.90
20740;DHT22;10530;49.968;19.844;2023-07-31T19:29:07;17.30;99.90
20740;DHT22;10530;49.968;19.844;2023-07-31T19:34:12;17.30;99.90
20740;DHT22;10530;49.968;19.844;2023-07-31T19:39:15;17.30;99.90
20740;DHT22;10530;49.968;19.844;2023-07-31T19:44:18;17.10;99.90
20740;DHT22;10530;49.968;19.844;2023-07-31T19:49:20;17.10;99.90
20740;DHT22;10530;49.968;19.844;2023-07-31T19:54:23;16.80;99.90
20740;DHT22;10530;49.968;19.844;2023-07-31T19:59:26;16.70;99.90
20740;DHT22;10530;49.968;19.844;2023-07-31T20:04:29;16.70;99.90
20740;DHT22;10530;49.968;19.844;2023-07-31T20:09:32;16.70;99.90
20740;DHT22;10530;49.968;19.844;2023-07-31T20:14:34;16.50;99.90
20740;DHT22;10530;49.968;19.844;2023-07-31T20:19:37;16.50;99.90
20740;DHT22;10530;49.968;19.844;2023-07-31T20:24:40;16.60;99.90
20740;DHT22;10530;49.968;19.844;2023-07-31T20:29:43;16.50;99.90
20740;DHT22;10530;49.968;19.844;2023-07-31T20:34:45;16.20;99.90
20740;DHT22;10530;49.968;19.844;2023-07-31T20:39:48;16.20;99.90
20740;DHT22;10530;49.968;19.844;2023-07-31T20:44:51;16.10;99.90
20740;DHT22;10530;49.968;19.844;2023-07-31T20:49:54;16.20;99.90
20740;DHT22;10530;49.968;19.844;2023-07-31T20:54:57;16.10;99.90
20740;DHT22;10530;49.968;19.844;2023-07-31T20:59:59;16.20;99.90
20740;DHT22;10530;49.968;19.844;2023-07-31T21:05:03;15.90;99.90
20740;DHT22;10530;49.968;19.844;2023-07-31T21:10:06;16.00;99.90
20740;DHT22;10530;49.968;19.844;2023-07-31T21:15:12;15.90;99.90
20740;DHT22;10530;49.968;19.844;2023-07-31T21:20:14;15.80;99.90
20740;DHT22;10530;49.968;19.844;2023-07-31T21:25:17;15.80;99.90
20740;DHT22;10530;49.968;19.844;2023-07-31T21:30:20;15.90;99.90
20740;DHT22;10530;49.968;19.844;2023-07-31T21:35:23;15.60;99.90
20740;DHT22;10530;49.968;19.844;2023-07-31T21:40:26;15.70;99.90
20740;DHT22;10530;49.968;19.844;2023-07-31T21:45:29;15.70;99.90
20740;DHT22;10530;49.968;19.844;2023-07-31T21:50:31;15.40;99.90
20740;DHT22;10530;49.968;19.844;2023-07-31T21:55:34;15.30;99.90
20740;DHT22;10530;49.968;19.844;2023-07-31T22:00:37;15.10;99.90
20740;DHT22;10530;49.968;19.844;2023-07-31T22:05:40;15.10;99.90
20740;DHT22;10530;49.968;19.844;2023-07-31T22:10:43;15.00;99.90
20740;DHT22;10530;49.968;19.844;2023-07-31T22:15:46;14.90;99.90
20740;DHT22;10530;49.968;19.844;2023-07-31T22:20:50;14.90;99.90
20740;DHT22;10530;49.968;19.844;2023-07-31T22:25:53;14.90;99.90
20740;DHT22;10530;49.968;19.844;2023-07-31T22:30:55;14.90;99.90
20740;DHT22;10530;49.968;19.844;2023-07-31T22:35:58;14.70;99.90
20740;DHT22;10530;49.968;19.844;2023-07-31T22:41:01;14.80;99.90
20740;DHT22;10530;49.968;19.844;2023-07-31T22:46:04;14.80;99.90
20740;DHT22;10530;49.968;19.844;2023-07-31T22:51:07;14.70;99.90
20740;DHT22;10530;49.968;19.844;2023-07-31T22:56:10;14.70;99.90
20740;DHT22;10530;49.968;19.844;2023-07-31T23:01:13;14.80;99.90
20740;DHT22;10530;49.968;19.844;2023-07-31T23:06:16;14.90;99.90
20740;DHT22;10530;49.968;19.844;2023-07-31T23:11:19;15.00;99.90
20740;DHT22;10530;49.968;19.844;2023-07-31T23:16:21;14.90;99.90
20740;DHT22;10530;49.968;19.844;2023-07-31T23:21:24;14.80;99.90
20740;DHT22;10530;49.968;19.844;2023-07-31T23:26:27;14.80;99.90
20740;DHT22;10530;49.968;19.844;2023-07-31T23:31:30;14.70;99.90
20740;DHT22;10530;49.968;19.844;2023-07-31T23:36:32;14.70;99.90
20740;DHT22;10530;49.968;19.844;2023-07-31T23:41:35;14.70;99.90
20740;DHT22;10530;49.968;19.844;2023-07-31T23:46:38;14.50;99.90
20740;DHT22;10530;49.968;19.844;2023-07-31T23:51:48;14.70;99.90
20740;DHT22;10530;49.968;19.844;2023-07-31T23:56:51;14.80;99.90
